Time;durP1;ratioP1;P1;durP2;ratioP2;P2;SDS_P1;SDS_P2;PMS_P1;PMS_P2;Temp;Humidity;BMP_temperature;BMP_pressure;BME280_temperature;BME280_humidity;BME280_pressure;Samples;Min_cycle;Max_cycle;Signal;HPM_P1;HPM_P2
2021/09/19 00:09:06;;;;;;;4.60;3.50;;;;;;;12.06;81.36;101103.38;5063693;28;20043;-68
2021/09/19 00:11:34;;;;;;;9.63;3.33;;;;;;;12.15;80.88;101103.69;5060534;28;20052;-66
2021/09/19 00:14:01;;;;;;;6.80;3.15;;;;;;;11.99;82.56;101104.69;5071027;28;20062;-66
2021/09/19 00:16:28;;;;;;;6.07;3.70;;;;;;;12.03;82.49;101108.84;5068359;28;20135;-67
2021/09/19 00:18:56;;;;;;;6.78;3.47;;;;;;;11.99;82.90;101109.97;5063876;28;20477;-66
2021/09/19 00:21:23;;;;;;;7.15;3.95;;;;;;;11.83;84.52;101112.59;5068676;28;20045;-67
2021/09/19 00:23:50;;;;;;;10.40;3.10;;;;;;;11.93;84.26;101105.00;5068897;28;20053;-67
2021/09/19 00:26:17;;;;;;;5.53;3.97;;;;;;;11.87;84.28;101109.69;5068474;28;20062;-67
2021/09/19 00:28:44;;;;;;;6.53;3.70;;;;;;;11.90;85.13;101098.13;5069106;28;20177;-67
2021/09/19 00:31:12;;;;;;;5.18;4.05;;;;;;;12.02;83.59;101104.47;5066244;28;20135;-67
2021/09/19 00:33:39;;;;;;;4.82;3.53;;;;;;;12.04;82.97;101099.97;5076287;28;20059;-66
2021/09/19 00:36:06;;;;;;;4.93;3.17;;;;;;;11.87;84.17;101099.16;5075254;28;20113;-67
2021/09/19 00:38:33;;;;;;;10.15;4.07;;;;;;;11.89;84.48;101096.44;5076111;28;20328;-66
2021/09/19 00:41:00;;;;;;;8.80;4.53;;;;;;;11.99;84.27;101096.75;5066966;28;20175;-67
2021/09/19 00:43:28;;;;;;;7.68;3.80;;;;;;;11.95;84.01;101092.59;5065544;28;20203;-66
2021/09/19 00:45:55;;;;;;;8.40;4.07;;;;;;;12.04;82.95;101090.28;5070232;28;20048;-66
2021/09/19 00:48:22;;;;;;;6.25;4.03;;;;;;;11.93;85.17;101091.81;5079005;28;20087;-66
2021/09/19 00:50:49;;;;;;;15.68;4.28;;;;;;;11.87;85.11;101093.03;5064670;28;20549;-66
2021/09/19 00:53:17;;;;;;;5.68;3.65;;;;;;;11.98;83.57;101088.00;5057617;28;20047;-68
2021/09/19 00:55:48;;;;;;;13.57;4.22;;;;;;;11.89;84.51;101088.53;5069097;28;20123;-66
2021/09/19 00:58:17;;;;;;;9.70;4.32;;;;;;;12.01;83.58;101093.09;5074278;28;20159;-67
2021/09/19 01:00:49;;;;;;;8.35;3.90;;;;;;;11.94;83.71;101089.09;5068922;28;20529;-66
2021/09/19 01:03:16;;;;;;;10.52;3.95;;;;;;;11.87;84.78;101080.69;5071448;28;20067;-66
2021/09/19 01:05:45;;;;;;;8.63;3.85;;;;;;;11.88;84.67;101084.16;5067212;28;20119;-66
2021/09/19 01:08:14;;;;;;;9.15;4.20;;;;;;;12.02;83.75;101083.38;5070905;28;20531;-66
2021/09/19 01:10:42;;;;;;;8.20;3.80;;;;;;;11.92;84.64;101085.69;5065508;28;20075;-67
2021/09/19 01:13:09;;;;;;;6.45;3.42;;;;;;;11.88;84.68;101078.88;5078672;28;20143;-67
2021/09/19 01:15:37;;;;;;;8.02;3.97;;;;;;;11.83;85.34;101081.78;5074685;28;20155;-67
2021/09/19 01:18:06;;;;;;;8.75;3.90;;;;;;;11.87;85.23;101079.84;5071450;28;20132;-68
2021/09/19 01:20:33;;;;;;;8.32;4.30;;;;;;;11.87;85.07;101077.19;5060071;28;20106;-68
2021/09/19 01:23:05;;;;;;;8.10;4.70;;;;;;;11.82;85.39;101073.94;5049428;28;20128;-66
2021/09/19 01:25:33;;;;;;;6.15;4.18;;;;;;;11.72;86.03;101070.97;5070446;28;20056;-65
2021/09/19 01:28:00;;;;;;;8.18;4.22;;;;;;;11.69;85.62;101068.50;5067923;28;20075;-67
2021/09/19 01:30:27;;;;;;;7.80;4.53;;;;;;;11.67;86.11;101067.75;5067837;28;20050;-66
2021/09/19 01:32:55;;;;;;;7.60;4.80;;;;;;;11.76;86.98;101067.22;5080510;28;20530;-67
2021/09/19 01:35:22;;;;;;;6.93;3.85;;;;;;;11.82;85.20;101069.53;5061583;28;20135;-67
2021/09/19 01:37:49;;;;;;;6.70;4.00;;;;;;;11.74;85.96;101065.59;5058161;28;20071;-67
2021/09/19 01:40:16;;;;;;;8.38;4.57;;;;;;;11.78;85.65;101067.13;5064813;28;20423;-66
2021/09/19 01:42:44;;;;;;;6.30;4.10;;;;;;;11.84;85.19;101066.81;5071860;28;20441;-67
2021/09/19 01:45:11;;;;;;;6.60;4.43;;;;;;;11.81;84.63;101064.34;5053660;28;20080;-66
2021/09/19 01:47:38;;;;;;;7.00;4.22;;;;;;;11.74;85.82;101058.53;5084880;28;20052;-67
2021/09/19 01:50:07;;;;;;;5.65;4.35;;;;;;;11.66;85.85;101055.47;5063740;28;20142;-67
2021/09/19 01:52:34;;;;;;;7.57;4.28;;;;;;;11.68;86.03;101058.06;5075451;28;20365;-67
2021/09/19 01:55:03;;;;;;;9.00;4.35;;;;;;;11.77;85.21;101062.81;5064957;28;20079;-68
2021/09/19 01:57:30;;;;;;;9.32;4.80;;;;;;;11.90;84.33;101061.19;5069431;28;20529;-66
2021/09/19 01:59:57;;;;;;;7.03;4.43;;;;;;;11.87;84.62;101064.00;5066121;28;20459;-68
2021/09/19 02:02:25;;;;;;;11.18;4.43;;;;;;;11.84;84.82;101065.03;5044236;28;20144;-66
2021/09/19 02:04:53;;;;;;;8.00;4.82;;;;;;;11.85;85.34;101061.47;5059678;28;20051;-67
2021/09/19 02:07:21;;;;;;;8.48;4.90;;;;;;;11.82;85.17;101064.28;5055938;28;20435;-66
2021/09/19 02:09:48;;;;;;;7.70;4.25;;;;;;;11.82;85.33;101058.13;5061395;28;20128;-66
2021/09/19 02:12:15;;;;;;;7.30;4.20;;;;;;;11.70;86.11;101048.25;5060516;28;20090;-66
2021/09/19 02:14:43;;;;;;;17.15;5.40;;;;;;;11.73;86.25;101048.94;5064122;28;20147;-66
2021/09/19 02:17:12;;;;;;;7.50;4.43;;;;;;;11.79;85.64;101042.44;5055423;28;20059;-67
2021/09/19 02:19:40;;;;;;;10.23;4.45;;;;;;;11.78;86.03;101051.31;5061133;28;20057;-68
2021/09/19 02:22:12;;;;;;;8.68;4.18;;;;;;;11.76;86.21;101042.66;5068748;28;20495;-66
2021/09/19 02:24:40;;;;;;;6.55;3.78;;;;;;;11.73;86.26;101045.44;5061048;28;20147;-67
2021/09/19 02:27:07;;;;;;;7.38;4.07;;;;;;;11.74;85.80;101042.72;5067714;28;20060;-67
2021/09/19 02:29:35;;;;;;;7.68;4.50;;;;;;;11.70;86.55;101042.97;5065449;28;20064;-66
2021/09/19 02:32:03;;;;;;;7.32;4.65;;;;;;;11.79;85.94;101035.38;5059922;28;20089;-67
2021/09/19 02:34:30;;;;;;;7.07;4.57;;;;;;;11.78;86.38;101038.13;5067754;28;20049;-67
2021/09/19 02:36:57;;;;;;;9.55;4.82;;;;;;;11.63;86.98;101037.22;5070501;28;20147;-67
2021/09/19 02:39:24;;;;;;;7.35;4.00;;;;;;;11.60;87.16;101040.88;5054207;28;20418;-67
2021/09/19 02:41:52;;;;;;;10.13;4.47;;;;;;;11.47;87.96;101036.38;5067757;28;20195;-67
2021/09/19 02:44:19;;;;;;;8.00;4.53;;;;;;;11.56;87.41;101035.84;5059613;28;20113;-67
2021/09/19 02:46:46;;;;;;;7.78;4.03;;;;;;;11.55;87.88;101035.00;5081471;28;20267;-66
2021/09/19 02:49:13;;;;;;;8.15;4.30;;;;;;;11.47;88.88;101036.38;5077400;28;20084;-67
2021/09/19 02:51:40;;;;;;;8.60;4.28;;;;;;;11.41;89.36;101032.28;5069672;28;20067;-66
2021/09/19 02:54:07;;;;;;;8.75;4.18;;;;;;;11.56;88.30;101041.13;5076560;28;20601;-67
2021/09/19 02:56:35;;;;;;;6.25;4.70;;;;;;;11.53;87.98;101036.03;5067603;28;20052;-68
2021/09/19 02:59:02;;;;;;;5.43;3.95;;;;;;;11.48;88.46;101040.69;5064887;28;20601;-67
2021/09/19 03:01:29;;;;;;;10.13;4.00;;;;;;;11.33;89.90;101048.53;5060600;28;20055;-66
2021/09/19 03:03:57;;;;;;;7.65;4.28;;;;;;;11.33;90.29;101043.25;5070253;28;20067;-69
2021/09/19 03:06:25;;;;;;;9.23;5.18;;;;;;;11.44;88.76;101034.78;5065985;28;20068;-66
2021/09/19 03:08:52;;;;;;;7.10;3.83;;;;;;;11.53;87.55;101044.81;5067424;28;20048;-66
2021/09/19 03:11:20;;;;;;;9.48;4.13;;;;;;;11.44;88.21;101044.44;5062953;28;20056;-66
2021/09/19 03:13:47;;;;;;;6.57;3.85;;;;;;;11.34;89.24;101046.75;5057430;28;20471;-68
2021/09/19 03:16:14;;;;;;;9.65;4.18;;;;;;;11.38;89.23;101053.53;5062859;28;20091;-67
2021/09/19 03:18:42;;;;;;;8.30;4.40;;;;;;;11.39;89.42;101044.69;5060453;28;20437;-67
2021/09/19 03:21:09;;;;;;;6.95;4.63;;;;;;;11.31;89.82;101041.66;5063213;28;20526;-66
2021/09/19 03:23:36;;;;;;;11.15;4.70;;;;;;;11.46;88.80;101040.78;5065447;28;20889;-66
2021/09/19 03:26:03;;;;;;;9.00;4.72;;;;;;;11.38;89.57;101035.94;5059284;28;20087;-66
2021/09/19 03:28:31;;;;;;;5.40;3.90;;;;;;;11.43;89.73;101026.94;5067613;28;20056;-67
2021/09/19 03:30:58;;;;;;;7.75;4.07;;;;;;;11.34;89.94;101037.03;5066406;28;20059;-67
2021/09/19 03:33:26;;;;;;;8.15;4.20;;;;;;;11.32;90.05;101032.81;5066069;28;20182;-67
2021/09/19 03:35:53;;;;;;;12.13;4.55;;;;;;;11.25;90.83;101034.06;5054652;28;20052;-66
2021/09/19 03:38:20;;;;;;;6.60;4.25;;;;;;;11.27;91.18;101034.84;5058710;28;20064;-67
2021/09/19 03:40:47;;;;;;;6.80;4.32;;;;;;;11.27;91.40;101035.69;5063331;28;20118;-66
2021/09/19 03:43:14;;;;;;;8.15;4.25;;;;;;;11.29;91.46;101049.63;5066451;28;20167;-67
2021/09/19 03:45:42;;;;;;;7.18;4.63;;;;;;;11.22;92.14;101043.00;5065720;28;20083;-67
2021/09/19 03:48:09;;;;;;;9.32;4.28;;;;;;;11.25;92.08;101050.72;5064327;28;20119;-67
2021/09/19 03:50:36;;;;;;;8.07;4.43;;;;;;;11.20;92.63;101050.13;5075014;28;20060;-66
2021/09/19 03:53:04;;;;;;;6.85;4.22;;;;;;;11.25;92.78;101050.72;5073697;28;20131;-66
2021/09/19 03:55:31;;;;;;;7.95;4.45;;;;;;;11.32;92.59;101048.63;5065653;28;20129;-66
2021/09/19 03:57:59;;;;;;;6.38;3.83;;;;;;;11.19;93.21;101050.22;5082762;28;20052;-66
2021/09/19 04:00:27;;;;;;;7.50;4.50;;;;;;;11.19;93.44;101052.88;5075196;28;20446;-66
2021/09/19 04:02:54;;;;;;;7.22;4.10;;;;;;;11.33;92.96;101053.81;5069707;28;20132;-66
2021/09/19 04:05:21;;;;;;;7.93;4.35;;;;;;;11.29;93.36;101052.25;5059607;28;20076;-65
2021/09/19 04:07:49;;;;;;;8.70;4.80;;;;;;;11.19;94.22;101053.72;5065823;28;20059;-66
2021/09/19 04:10:16;;;;;;;8.60;5.07;;;;;;;11.22;94.42;101057.97;5059993;28;20557;-66
2021/09/19 04:12:43;;;;;;;15.32;4.75;;;;;;;11.35;93.66;101054.59;5081252;28;20075;-67
2021/09/19 04:15:11;;;;;;;9.77;4.75;;;;;;;11.41;93.08;101061.28;5062405;28;20140;-66
2021/09/19 04:17:38;;;;;;;9.27;4.32;;;;;;;11.40;93.35;101057.81;5074344;28;20056;-66
2021/09/19 04:20:07;;;;;;;9.20;4.40;;;;;;;11.37;93.27;101057.97;5058737;28;20127;-67
2021/09/19 04:22:34;;;;;;;6.40;3.75;;;;;;;11.42;93.53;101057.72;5066318;28;20087;-66
2021/09/19 04:25:01;;;;;;;8.55;4.18;;;;;;;11.43;92.95;101066.47;5066454;28;20406;-66
2021/09/19 04:27:28;;;;;;;7.50;4.10;;;;;;;11.40;93.56;101064.88;5070272;28;20139;-68
2021/09/19 04:29:55;;;;;;;6.43;4.40;;;;;;;11.40;92.66;101060.44;5063582;28;20454;-68
2021/09/19 04:32:23;;;;;;;7.03;4.90;;;;;;;11.23;93.71;101059.66;5067904;28;20614;-67
2021/09/19 04:34:50;;;;;;;5.93;4.43;;;;;;;11.22;93.90;101065.88;5056626;28;20159;-66
2021/09/19 04:37:17;;;;;;;5.75;4.40;;;;;;;11.20;94.36;101065.09;5070003;28;20066;-67
2021/09/19 04:39:45;;;;;;;10.02;4.50;;;;;;;11.18;94.34;101074.88;5065159;28;20083;-67
2021/09/19 04:42:13;;;;;;;10.45;5.32;;;;;;;11.08;95.81;101075.38;5068177;28;20182;-66
2021/09/19 04:44:41;;;;;;;8.57;4.88;;;;;;;11.12;95.91;101083.94;5079320;28;20120;-67
2021/09/19 04:47:08;;;;;;;7.30;4.78;;;;;;;11.10;96.03;101076.13;5073084;28;20103;-65
2021/09/19 04:49:36;;;;;;;9.13;4.95;;;;;;;11.11;96.34;101077.00;5069649;28;20053;-65
2021/09/19 04:52:03;;;;;;;8.43;5.45;;;;;;;11.18;96.01;101077.53;5084824;28;20418;-67
2021/09/19 04:54:30;;;;;;;7.45;4.75;;;;;;;11.27;95.78;101079.66;5066277;28;20152;-67
2021/09/19 04:56:58;;;;;;;7.75;4.72;;;;;;;11.31;95.18;101079.41;5076206;28;20105;-66
2021/09/19 04:59:25;;;;;;;10.60;4.30;;;;;;;11.25;95.94;101077.09;5074523;28;20056;-66
2021/09/19 05:01:52;;;;;;;7.93;4.50;;;;;;;11.16;96.20;101083.69;5079500;28;20040;-67
2021/09/19 05:04:20;;;;;;;5.47;4.00;;;;;;;11.11;96.99;101080.47;5062607;28;20056;-68
2021/09/19 05:06:47;;;;;;;8.32;4.72;;;;;;;11.10;97.11;101080.56;5073617;28;20048;-67
2021/09/19 05:09:14;;;;;;;8.35;5.05;;;;;;;11.11;97.08;101082.25;5067575;28;20222;-66
2021/09/19 05:11:41;;;;;;;6.50;4.85;;;;;;;11.17;96.76;101084.59;5071366;28;20400;-67
2021/09/19 05:14:09;;;;;;;8.27;4.80;;;;;;;11.20;96.88;101080.91;5066701;28;20056;-66
2021/09/19 05:16:36;;;;;;;7.22;4.78;;;;;;;11.31;96.27;101079.41;5068698;28;20211;-66
2021/09/19 05:19:03;;;;;;;16.15;5.07;;;;;;;11.24;96.46;101078.03;5077565;28;20795;-66
2021/09/19 05:21:30;;;;;;;10.00;4.82;;;;;;;11.36;95.18;101090.53;5069243;28;20048;-67
2021/09/19 05:23:57;;;;;;;13.10;4.68;;;;;;;11.38;95.56;101086.03;5066862;28;20060;-66
2021/09/19 05:26:25;;;;;;;7.93;4.60;;;;;;;11.52;94.77;101073.88;5068081;28;20139;-66
2021/09/19 05:28:52;;;;;;;7.10;4.72;;;;;;;11.34;95.62;101078.38;5076939;28;20478;-65
2021/09/19 05:31:19;;;;;;;12.38;5.78;;;;;;;11.57;94.60;101077.09;5060311;28;20056;-68
2021/09/19 05:33:46;;;;;;;8.25;5.22;;;;;;;11.38;95.51;101067.56;5066628;28;20141;-66
2021/09/19 05:36:14;;;;;;;10.60;4.97;;;;;;;11.59;92.66;101075.25;5075670;28;20055;-65
2021/09/19 05:38:42;;;;;;;6.85;5.35;;;;;;;11.52;93.36;101071.22;5073195;28;20147;-66
2021/09/19 05:41:09;;;;;;;9.40;4.75;;;;;;;11.39;94.19;101071.94;5070060;28;20057;-67
2021/09/19 05:43:36;;;;;;;8.20;4.93;;;;;;;11.49;93.49;101067.00;5074885;28;21550;-66
2021/09/19 05:46:03;;;;;;;9.32;5.47;;;;;;;11.41;94.43;101067.41;5058141;28;20051;-66
2021/09/19 05:48:30;;;;;;;11.07;5.53;;;;;;;11.39;94.64;101069.31;5070480;28;20052;-67
2021/09/19 05:50:57;;;;;;;7.50;5.10;;;;;;;11.38;95.18;101074.63;5074898;28;20047;-68
2021/09/19 05:53:25;;;;;;;10.43;5.28;;;;;;;11.39;95.62;101074.56;5050630;28;20427;-66
2021/09/19 05:55:52;;;;;;;7.80;5.57;;;;;;;11.26;96.19;101072.69;5079520;28;20052;-66
2021/09/19 05:58:19;;;;;;;8.48;4.93;;;;;;;11.37;95.59;101070.31;5070157;28;20059;-67
2021/09/19 06:00:46;;;;;;;7.80;4.22;;;;;;;11.32;95.51;101072.34;5068809;28;20131;-66
2021/09/19 06:03:13;;;;;;;6.90;5.20;;;;;;;11.47;95.34;101076.75;5077989;28;20544;-67
2021/09/19 06:05:41;;;;;;;11.85;5.70;;;;;;;11.61;94.43;101068.06;5066546;28;20127;-67
2021/09/19 06:08:08;;;;;;;10.02;5.55;;;;;;;11.47;94.67;101074.13;5071754;28;20090;-68
2021/09/19 06:10:36;;;;;;;8.98;5.35;;;;;;;11.48;95.29;101080.25;5060704;28;20148;-66
2021/09/19 06:13:03;;;;;;;6.80;4.80;;;;;;;11.52;94.77;101066.81;5070106;28;20207;-68
2021/09/19 06:15:31;;;;;;;9.63;5.68;;;;;;;11.51;95.06;101073.03;5060233;28;20459;-68
2021/09/19 06:17:58;;;;;;;9.93;5.32;;;;;;;11.55;94.64;101076.34;5061239;28;20079;-67
2021/09/19 06:20:25;;;;;;;8.27;4.85;;;;;;;11.46;94.85;101082.13;5063582;28;20492;-67
2021/09/19 06:22:52;;;;;;;6.50;5.30;;;;;;;11.54;94.24;101075.50;5068846;28;20183;-67
2021/09/19 06:25:19;;;;;;;11.90;5.57;;;;;;;11.59;94.56;101070.81;5066097;28;20135;-67
2021/09/19 06:27:47;;;;;;;11.25;5.35;;;;;;;11.84;92.63;101074.72;5069129;28;20140;-67
2021/09/19 06:30:14;;;;;;;7.30;5.18;;;;;;;11.87;92.09;101066.66;5063056;28;20131;-68
2021/09/19 06:32:41;;;;;;;8.20;5.43;;;;;;;11.95;90.90;101080.25;5065524;28;20066;-67
2021/09/19 06:35:09;;;;;;;5.97;4.65;;;;;;;11.87;91.50;101080.69;5058735;28;20055;-66
2021/09/19 06:37:37;;;;;;;8.45;5.45;;;;;;;11.89;91.28;101081.47;5045412;28;20465;-67
2021/09/19 06:40:05;;;;;;;8.95;4.90;;;;;;;11.94;89.83;101081.19;5060724;28;20055;-67
2021/09/19 06:42:32;;;;;;;11.90;5.53;;;;;;;11.87;90.82;101078.03;5074501;28;20060;-67
2021/09/19 06:45:00;;;;;;;10.75;5.45;;;;;;;12.00;90.33;101083.47;5062496;28;20064;-68
2021/09/19 06:47:27;;;;;;;9.98;5.38;;;;;;;12.02;90.45;101075.47;5074786;28;20045;-68
2021/09/19 06:49:54;;;;;;;9.93;4.95;;;;;;;12.12;89.15;101088.06;5065213;28;20131;-67
2021/09/19 06:52:22;;;;;;;10.40;5.78;;;;;;;12.04;89.99;101084.16;5060897;28;20485;-67
2021/09/19 06:54:50;;;;;;;10.18;6.45;;;;;;;12.11;88.95;101082.84;5061847;28;20049;-66
2021/09/19 06:57:17;;;;;;;9.40;4.85;;;;;;;12.12;89.52;101082.78;5040014;28;20132;-66
2021/09/19 06:59:44;;;;;;;7.10;5.35;;;;;;;12.10;90.14;101079.34;5061135;28;20136;-66
2021/09/19 07:02:11;;;;;;;10.55;5.28;;;;;;;12.24;89.74;101086.47;5057182;28;20064;-66
2021/09/19 07:04:39;;;;;;;8.65;4.97;;;;;;;12.38;88.81;101083.00;5057348;28;20112;-67
2021/09/19 07:07:06;;;;;;;7.40;4.55;;;;;;;12.35;88.90;101077.94;5076535;28;20053;-67
2021/09/19 07:09:33;;;;;;;11.27;5.13;;;;;;;12.44;89.59;101082.66;5067154;28;20129;-66
2021/09/19 07:12:00;;;;;;;8.20;4.78;;;;;;;12.49;87.84;101077.97;5072454;28;20510;-66
2021/09/19 07:14:27;;;;;;;11.13;5.07;;;;;;;12.57;87.44;101086.28;5074270;28;20083;-66
2021/09/19 07:16:54;;;;;;;8.75;4.97;;;;;;;12.76;86.16;101085.16;5066780;28;20561;-69
2021/09/19 07:19:22;;;;;;;12.23;4.57;;;;;;;12.64;86.59;101089.38;5060106;28;20522;-66
2021/09/19 07:21:49;;;;;;;8.88;4.72;;;;;;;12.70;86.60;101086.41;5064649;28;20052;-67
2021/09/19 07:24:16;;;;;;;7.65;5.13;;;;;;;12.55;87.55;101090.78;5061539;28;20064;-67
2021/09/19 07:26:43;;;;;;;11.98;5.88;;;;;;;12.59;88.26;101089.66;5061623;28;20182;-66
2021/09/19 07:29:11;;;;;;;10.13;4.80;;;;;;;12.74;84.25;101093.16;5059517;28;20056;-67
2021/09/19 07:31:38;;;;;;;11.10;5.35;;;;;;;13.03;83.08;101095.84;5070988;28;20048;-66
2021/09/19 07:34:05;;;;;;;9.98;5.70;;;;;;;13.08;83.44;101096.41;5058145;28;20402;-67
2021/09/19 07:36:35;;;;;;;8.88;5.32;;;;;;;12.99;84.67;101097.81;5068650;28;20067;-69
2021/09/19 07:39:06;;;;;;;8.10;5.20;;;;;;;12.82;85.17;101098.00;5067225;28;20135;-70
2021/09/19 07:41:33;;;;;;;5.80;4.10;;;;;;;13.21;82.44;101104.44;5068714;28;20426;-66
2021/09/19 07:44:01;;;;;;;7.03;4.32;;;;;;;13.18;81.60;101103.66;5056286;28;20125;-66
2021/09/19 07:46:28;;;;;;;6.75;4.90;;;;;;;13.09;81.61;101096.31;5066515;28;20139;-67
2021/09/19 07:48:56;;;;;;;6.10;4.30;;;;;;;13.30;79.84;101093.31;5062809;28;20048;-68
2021/09/19 07:51:23;;;;;;;7.20;4.40;;;;;;;13.28;80.94;101092.53;5070064;28;20143;-67
2021/09/19 07:53:51;;;;;;;9.07;4.28;;;;;;;13.43;78.54;101078.38;5067239;28;20131;-67
2021/09/19 07:56:20;;;;;;;6.25;4.28;;;;;;;13.63;78.24;101080.56;5066477;28;20121;-66
2021/09/19 07:58:48;;;;;;;16.80;4.95;;;;;;;13.74;77.47;101079.91;5072352;28;20044;-67
2021/09/19 08:01:16;;;;;;;8.65;4.93;;;;;;;13.90;76.51;101082.38;5065457;28;20044;-67
2021/09/19 08:03:47;;;;;;;7.10;3.78;;;;;;;14.08;75.77;101085.63;5067717;28;20470;-66
2021/09/19 08:06:15;;;;;;;6.00;4.10;;;;;;;13.91;75.80;101076.13;5066372;28;20072;-66
2021/09/19 08:08:43;;;;;;;7.32;3.80;;;;;;;14.11;74.49;101078.31;5065457;28;20036;-66
2021/09/19 08:11:10;;;;;;;9.75;4.38;;;;;;;14.25;72.22;101077.41;5068053;28;20548;-68
2021/09/19 08:13:37;;;;;;;6.38;4.07;;;;;;;14.37;71.34;101078.38;5055612;28;20290;-67
2021/09/19 08:16:05;;;;;;;9.88;4.95;;;;;;;14.33;71.34;101079.53;5064874;28;20083;-67
2021/09/19 08:18:32;;;;;;;7.57;4.13;;;;;;;14.33;70.40;101084.84;5067278;28;20147;-67
2021/09/19 08:21:00;;;;;;;8.25;3.80;;;;;;;14.31;69.37;101084.91;5064354;28;20056;-68
2021/09/19 08:23:27;;;;;;;8.00;3.72;;;;;;;14.27;68.27;101082.59;5068041;28;20056;-68
2021/09/19 08:25:55;;;;;;;7.75;3.90;;;;;;;14.37;68.51;101087.19;5063994;28;20048;-67
2021/09/19 08:28:22;;;;;;;7.43;4.50;;;;;;;14.56;66.86;101089.44;5059979;28;20052;-67
2021/09/19 08:30:49;;;;;;;6.63;3.85;;;;;;;14.54;66.94;101099.28;5066720;28;20501;-67
2021/09/19 08:33:16;;;;;;;9.63;3.42;;;;;;;14.58;68.03;101092.84;5068253;28;20059;-68
2021/09/19 08:35:43;;;;;;;8.15;4.40;;;;;;;14.82;67.54;101087.66;5065714;28;20048;-66
2021/09/19 08:38:10;;;;;;;6.40;4.32;;;;;;;14.47;68.89;101092.69;5059594;28;20187;-68
2021/09/19 08:40:38;;;;;;;6.55;3.75;;;;;;;14.51;70.21;101102.16;5061678;28;20499;-68
2021/09/19 08:43:06;;;;;;;5.75;4.35;;;;;;;15.05;67.47;101096.66;5064107;28;20511;-68
2021/09/19 08:45:33;;;;;;;7.13;4.57;;;;;;;14.91;68.71;101105.59;5057765;28;20507;-66
2021/09/19 08:48:00;;;;;;;6.47;4.10;;;;;;;14.77;69.23;101107.47;5070268;28;20084;-68
2021/09/19 08:50:28;;;;;;;7.32;4.32;;;;;;;14.71;70.48;101110.56;5073505;28;20108;-67
2021/09/19 08:52:55;;;;;;;9.25;4.13;;;;;;;15.06;69.60;101110.78;5077737;28;20051;-66
2021/09/19 08:55:22;;;;;;;7.10;3.85;;;;;;;15.14;68.18;101114.59;5068796;28;20135;-67
2021/09/19 08:57:49;;;;;;;9.45;4.70;;;;;;;15.52;66.04;101113.66;5077047;28;20048;-66
2021/09/19 09:00:16;;;;;;;5.63;3.72;;;;;;;15.78;61.68;101116.28;5077128;28;20130;-66
2021/09/19 09:02:49;;;;;;;9.38;3.83;;;;;;;15.49;61.94;101108.59;5075084;28;20073;-67
2021/09/19 09:05:29;;;;;;;6.95;4.53;;;;;;;16.06;61.34;101115.94;5071582;28;20271;-67
2021/09/19 09:07:58;;;;;;;8.85;4.57;;;;;;;16.44;60.92;101106.91;5073517;28;20075;-66
2021/09/19 09:10:34;;;;;;;6.93;3.67;;;;;;;16.73;59.63;101109.19;5069166;28;20088;-67
2021/09/19 09:13:07;;;;;;;10.20;4.28;;;;;;;17.06;59.18;101103.03;5056217;28;20052;-67
2021/09/19 09:15:46;;;;;;;5.95;4.10;;;;;;;18.12;55.75;101101.53;5056043;28;20080;-68
2021/09/19 09:18:35;;;;;;;5.15;3.75;;;;;;;18.45;53.72;101105.00;5071427;28;20054;-67
2021/09/19 09:21:23;;;;;;;10.10;3.42;;;;;;;18.42;52.26;101108.81;5061364;28;20074;-67
2021/09/19 09:23:58;;;;;;;5.07;3.30;;;;;;;17.67;51.26;101099.00;5071689;28;20087;-67
2021/09/19 09:26:31;;;;;;;6.38;3.50;;;;;;;17.91;52.39;101114.81;5058504;28;20119;-67
2021/09/19 09:29:08;;;;;;;6.28;3.58;;;;;;;18.25;51.01;101104.03;5071420;28;20135;-69
2021/09/19 09:31:40;;;;;;;7.72;3.78;;;;;;;18.91;49.13;101107.31;5073753;28;20056;-66
2021/09/19 09:34:13;;;;;;;5.68;3.00;;;;;;;19.23;47.97;101095.66;5068738;28;20097;-67
2021/09/19 09:36:50;;;;;;;4.47;3.03;;;;;;;19.34;44.94;101098.22;5073729;28;20053;-67
2021/09/19 09:39:33;;;;;;;6.70;2.85;;;;;;;19.47;45.16;101097.97;5042866;28;20056;-67
2021/09/19 09:42:07;;;;;;;3.72;2.83;;;;;;;19.00;46.60;101089.63;5066992;28;20056;-67
2021/09/19 09:44:44;;;;;;;5.60;3.28;;;;;;;18.67;47.04;101096.88;5064494;28;20608;-67
2021/09/19 09:47:22;;;;;;;4.85;3.38;;;;;;;18.89;46.18;101085.25;5068912;28;20045;-67
2021/09/19 09:50:00;;;;;;;6.40;3.33;;;;;;;18.48;47.36;101084.28;5066864;28;20050;-67
2021/09/19 09:52:33;;;;;;;5.55;3.17;;;;;;;18.69;48.06;101086.13;5073173;28;20048;-67
2021/09/19 09:55:04;;;;;;;6.28;3.47;;;;;;;17.86;49.04;101082.38;5069582;28;20143;-67
2021/09/19 09:57:44;;;;;;;9.52;3.55;;;;;;;18.37;44.17;101081.69;5076264;28;20044;-66
2021/09/19 10:00:15;;;;;;;5.82;2.78;;;;;;;18.40;45.98;101085.91;5060231;28;20486;-67
2021/09/19 10:02:44;;;;;;;5.55;3.30;;;;;;;18.59;46.28;101082.50;5070556;28;20098;-68
2021/09/19 10:05:13;;;;;;;8.07;3.35;;;;;;;18.34;44.63;101083.75;5062185;28;20465;-67
2021/09/19 10:07:41;;;;;;;6.90;3.38;;;;;;;18.38;45.14;101088.72;5076312;28;20505;-68
2021/09/19 10:10:11;;;;;;;4.10;2.90;;;;;;;18.60;44.18;101084.22;5070515;28;20072;-67
2021/09/19 10:12:39;;;;;;;4.70;3.10;;;;;;;18.45;43.75;101087.19;5062677;28;20152;-67
2021/09/19 10:15:07;;;;;;;5.85;3.42;;;;;;;18.03;45.63;101077.50;5060097;28;20055;-66
2021/09/19 10:17:35;;;;;;;6.43;2.90;;;;;;;18.08;45.96;101077.94;5067003;28;20044;-67
2021/09/19 10:20:14;;;;;;;4.78;2.92;;;;;;;17.58;43.81;101088.25;5077312;28;20538;-67
2021/09/19 10:22:48;;;;;;;5.53;2.53;;;;;;;17.02;46.14;101089.16;5069974;28;20052;-67
2021/09/19 10:25:24;;;;;;;6.18;2.70;;;;;;;17.12;45.36;101075.97;5055701;28;20056;-68
2021/09/19 10:27:52;;;;;;;3.65;2.80;;;;;;;16.34;47.72;101088.13;5074224;28;20458;-67
2021/09/19 10:30:19;;;;;;;4.68;2.63;;;;;;;16.86;46.32;101084.16;5057952;28;20126;-68
2021/09/19 10:32:47;;;;;;;3.50;2.67;;;;;;;16.41;46.86;101077.91;5076018;28;20155;-68
2021/09/19 10:35:18;;;;;;;5.10;2.97;;;;;;;16.85;47.16;101090.47;5060638;28;20052;-67
2021/09/19 10:37:53;;;;;;;8.65;2.78;;;;;;;17.38;46.19;101090.72;5075814;28;20049;-67
2021/09/19 10:40:35;;;;;;;4.53;2.63;;;;;;;17.55;45.43;101081.34;5077676;28;20149;-67
2021/09/19 10:43:15;;;;;;;3.60;2.50;;;;;;;17.87;45.06;101083.22;5056507;28;20148;-67
2021/09/19 10:45:44;;;;;;;5.43;3.33;;;;;;;17.65;43.95;101086.75;5059354;28;20111;-67
2021/09/19 10:48:16;;;;;;;3.40;2.17;;;;;;;17.57;44.00;101083.91;5073369;28;20391;-68
2021/09/19 10:50:45;;;;;;;4.78;2.38;;;;;;;17.57;42.80;101081.25;5066354;28;20045;-67
2021/09/19 10:53:12;;;;;;;3.45;2.20;;;;;;;17.26;44.30;101086.34;5069995;28;20055;-66
2021/09/19 10:55:48;;;;;;;3.60;2.42;;;;;;;16.84;44.07;101087.91;5056389;28;20092;-67
2021/09/19 10:58:23;;;;;;;5.95;2.42;;;;;;;16.52;45.57;101080.56;5074836;28;20136;-68
2021/09/19 11:01:09;;;;;;;4.63;2.67;;;;;;;16.53;46.48;101081.44;5043115;28;20052;-68
2021/09/19 11:03:44;;;;;;;3.72;2.63;;;;;;;16.67;46.75;101078.56;5059742;28;20060;-67
2021/09/19 11:06:22;;;;;;;6.45;2.90;;;;;;;16.31;47.76;101083.06;5061770;28;20493;-67
2021/09/19 11:08:50;;;;;;;5.18;2.55;;;;;;;16.33;48.35;101077.63;5067093;28;20152;-66
2021/09/19 11:11:20;;;;;;;5.63;2.28;;;;;;;16.12;47.26;101080.97;5066675;28;20328;-67
2021/09/19 11:13:55;;;;;;;3.85;2.70;;;;;;;16.15;47.71;101075.41;5069358;28;20052;-68
2021/09/19 11:16:22;;;;;;;4.43;2.45;;;;;;;16.12;48.58;101072.13;5065069;28;20052;-69
2021/09/19 11:18:51;;;;;;;6.22;2.63;;;;;;;16.09;48.88;101075.88;5068824;28;20106;-68
2021/09/19 11:21:18;;;;;;;5.13;2.72;;;;;;;16.20;49.11;101067.94;5066083;28;20052;-67
2021/09/19 11:24:05;;;;;;;4.28;2.60;;;;;;;16.13;49.03;101074.69;5065937;28;20140;-68
2021/09/19 11:26:42;;;;;;;5.68;2.67;;;;;;;15.90;50.55;101080.88;5059330;28;20510;-65
2021/09/19 11:29:13;;;;;;;3.65;2.50;;;;;;;15.79;50.51;101076.31;5069881;28;20054;-66
2021/09/19 11:31:42;;;;;;;4.07;2.20;;;;;;;15.75;50.53;101081.97;5066173;28;20135;-65
2021/09/19 11:34:15;;;;;;;5.93;2.72;;;;;;;15.87;50.35;101081.94;5057042;28;20066;-67
2021/09/19 11:36:56;;;;;;;3.88;2.80;;;;;;;15.74;51.38;101081.13;5052434;28;20044;-68
2021/09/19 11:39:30;;;;;;;5.57;2.92;;;;;;;15.70;52.38;101066.38;5067411;28;20045;-67